createdAt,value
2023-01-08T00:02:08.076Z,96549.41
2023-01-08T00:04:40.764Z,96562.75
2023-01-08T00:07:13.440Z,96558.38
2023-01-08T00:09:46.225Z,96554.84
2023-01-08T00:12:18.951Z,96557.69
2023-01-08T00:14:51.685Z,96549.91
2023-01-08T00:17:24.478Z,96553.28
2023-01-08T00:19:57.253Z,96555.31
2023-01-08T00:22:29.900Z,96542.91
2023-01-08T00:25:02.594Z,96542.66
2023-01-08T00:27:35.361Z,96537.44
2023-01-08T00:30:08.707Z,96540.09
2023-01-08T00:32:41.413Z,96529.34
2023-01-08T00:35:14.439Z,96520.38
2023-01-08T00:37:49.554Z,96509.03
2023-01-08T00:40:22.281Z,96498.00
2023-01-08T00:42:55.017Z,96497.19
2023-01-08T00:45:27.719Z,96507.28
2023-01-08T00:48:00.849Z,96494.41
2023-01-08T00:50:33.556Z,96492.22
2023-01-08T00:53:06.443Z,96491.44
2023-01-08T00:55:39.120Z,96489.19
2023-01-08T00:58:12.349Z,96470.53
2023-01-08T01:00:45.112Z,96455.47
2023-01-08T01:03:17.944Z,96459.00
2023-01-08T01:05:50.693Z,96446.03
2023-01-08T01:08:23.933Z,96431.81
2023-01-08T01:10:56.700Z,96418.88
2023-01-08T01:13:29.476Z,96416.94
2023-01-08T01:16:03.513Z,96400.78
2023-01-08T01:18:36.947Z,96401.75
2023-01-08T01:21:36.176Z,96395.25
2023-01-08T01:24:12.022Z,96399.03
2023-01-08T01:26:44.783Z,96399.91
2023-01-08T01:29:17.556Z,96396.44
2023-01-08T01:31:50.904Z,96399.03
2023-01-08T01:34:24.498Z,96402.78
2023-01-08T01:36:57.204Z,96402.56
2023-01-08T01:39:30.054Z,96398.47
2023-01-08T01:42:02.873Z,96408.41
2023-01-08T01:44:46.077Z,96410.47
2023-01-08T01:47:37.506Z,96413.25
2023-01-08T01:50:20.071Z,96397.94
2023-01-08T01:53:32.432Z,96392.88
2023-01-08T01:56:05.794Z,96394.19
2023-01-08T01:58:38.732Z,96395.53
2023-01-08T02:01:11.903Z,96391.66
2023-01-08T02:03:44.899Z,96398.22
2023-01-08T02:06:25.964Z,96405.41
2023-01-08T02:09:01.474Z,96408.28
2023-01-08T02:11:53.079Z,96398.91
2023-01-08T02:14:53.410Z,96397.34
2023-01-08T02:17:34.403Z,96386.81
2023-01-08T02:20:20.608Z,96375.56
2023-01-08T02:23:02.568Z,96368.13
2023-01-08T02:25:35.261Z,96382.66
2023-01-08T02:28:13.368Z,96386.44
2023-01-08T02:30:47.890Z,96389.91
2023-01-08T02:33:20.678Z,96380.06
2023-01-08T02:36:24.849Z,96390.91
2023-01-08T02:39:39.967Z,96394.94
2023-01-08T02:42:55.343Z,96399.56
2023-01-08T02:45:48.807Z,96396.56
2023-01-08T02:48:42.707Z,96418.44
2023-01-08T02:51:41.416Z,96424.59
2023-01-08T02:54:21.415Z,96424.28
2023-01-08T02:57:03.403Z,96426.66
2023-01-08T02:59:40.447Z,96432.69
2023-01-08T03:02:14.037Z,96439.81
2023-01-08T03:05:09.335Z,96441.47
2023-01-08T03:07:43.576Z,96431.78
2023-01-08T03:10:21.370Z,96436.84
2023-01-08T03:12:56.223Z,96447.13
2023-01-08T03:15:40.892Z,96439.00
2023-01-08T03:18:24.463Z,96431.88
2023-01-08T03:20:58.374Z,96435.56
2023-01-08T03:23:35.350Z,96433.16
2023-01-08T03:26:10.767Z,96426.72
2023-01-08T03:28:51.268Z,96425.19
2023-01-08T03:31:28.679Z,96426.34
2023-01-08T03:34:05.080Z,96429.00
2023-01-08T03:36:41.755Z,96430.84
2023-01-08T03:39:21.352Z,96423.06
2023-01-08T03:41:59.929Z,96429.00
2023-01-08T03:44:33.013Z,96424.56
2023-01-08T03:47:10.872Z,96422.94
2023-01-08T03:49:46.057Z,96415.56
2023-01-08T03:52:30.357Z,96420.53
2023-01-08T03:55:03.964Z,96416.34
2023-01-08T03:57:36.839Z,96418.00
2023-01-08T04:00:10.287Z,96413.03
2023-01-08T04:02:43.860Z,96402.88
2023-01-08T04:05:16.735Z,96408.16
2023-01-08T04:07:49.746Z,96412.75
2023-01-08T04:10:24.091Z,96409.72
2023-01-08T04:13:16.809Z,96408.38
2023-01-08T04:15:51.084Z,96404.91
2023-01-08T04:18:25.147Z,96410.00
2023-01-08T04:20:57.911Z,96403.13
2023-01-08T04:23:30.822Z,96400.19
2023-01-08T04:26:08.255Z,96399.88
2023-01-08T04:28:41.044Z,96392.75
2023-01-08T04:31:13.841Z,96381.53
2023-01-08T04:33:46.829Z,96383.75
2023-01-08T04:36:20.725Z,96377.03
2023-01-08T04:38:53.502Z,96366.50
2023-01-08T04:41:26.498Z,96365.78
2023-01-08T04:43:59.323Z,96370.06
2023-01-08T04:46:32.311Z,96362.00
2023-01-08T04:49:05.097Z,96363.75
2023-01-08T04:51:38.130Z,96370.34
2023-01-08T04:54:10.906Z,96367.22
2023-01-08T04:56:43.746Z,96355.91
2023-01-08T04:59:16.417Z,96359.38
2023-01-08T05:01:49.119Z,96357.06
2023-01-08T05:04:22.093Z,96361.88
2023-01-08T05:06:54.715Z,96368.66
2023-01-08T05:09:27.403Z,96367.91
2023-01-08T05:12:00.101Z,96365.59
2023-01-08T05:14:32.791Z,96354.16
2023-01-08T05:17:05.515Z,96340.19
2023-01-08T05:19:38.548Z,96334.66
2023-01-08T05:22:11.327Z,96332.19
2023-01-08T05:24:43.974Z,96318.13
2023-01-08T05:27:16.693Z,96298.31
2023-01-08T05:29:49.331Z,96303.72
2023-01-08T05:32:22.010Z,96299.00
2023-01-08T05:34:54.701Z,96300.94
2023-01-08T05:37:27.383Z,96292.47
2023-01-08T05:40:00.085Z,96288.53
2023-01-08T05:42:35.290Z,96279.34
2023-01-08T05:45:08.446Z,96299.09
2023-01-08T05:47:41.125Z,96314.06
2023-01-08T05:50:13.829Z,96311.91
2023-01-08T05:52:46.532Z,96319.97
2023-01-08T05:55:19.160Z,96319.38
2023-01-08T05:57:52.251Z,96323.31
2023-01-08T06:00:24.940Z,96334.34
2023-01-08T06:02:58.343Z,96344.56
2023-01-08T06:05:32.720Z,96337.06
2023-01-08T06:08:07.707Z,96332.34
2023-01-08T06:10:41.237Z,96325.22
2023-01-08T06:13:13.902Z,96331.97
2023-01-08T06:15:46.999Z,96329.31
2023-01-08T06:18:19.851Z,96322.63
2023-01-08T06:20:52.610Z,96327.19
2023-01-08T06:23:25.778Z,96342.53
2023-01-08T06:26:00.596Z,96354.28
2023-01-08T06:28:33.775Z,96355.59
2023-01-08T06:31:06.530Z,96370.59
2023-01-08T06:33:39.192Z,96365.84
2023-01-08T06:36:11.836Z,96371.31
2023-01-08T06:38:44.510Z,96366.72
2023-01-08T06:41:18.371Z,96366.38
2023-01-08T06:43:51.187Z,96365.84
2023-01-08T06:46:23.894Z,96361.53
2023-01-08T06:48:56.548Z,96360.09
2023-01-08T06:51:29.235Z,96363.88
2023-01-08T06:54:02.437Z,96359.91
2023-01-08T06:56:48.856Z,96364.38
2023-01-08T06:59:25.627Z,96360.31
2023-01-08T07:01:58.659Z,96365.44
2023-01-08T07:04:31.547Z,96374.28
2023-01-08T07:07:04.186Z,96365.44
2023-01-08T07:09:36.805Z,96367.06
2023-01-08T07:12:15.525Z,96366.03
2023-01-08T07:14:48.176Z,96362.47
2023-01-08T07:17:20.860Z,96378.50
2023-01-08T07:19:53.550Z,96374.25
2023-01-08T07:22:27.172Z,96384.50
2023-01-08T07:24:59.876Z,96383.31
2023-01-08T07:27:33.158Z,96386.16
2023-01-08T07:30:08.348Z,96385.06
2023-01-08T07:32:43.663Z,96390.44
2023-01-08T07:35:16.467Z,96389.44
2023-01-08T07:37:49.165Z,96380.88
2023-01-08T07:40:22.376Z,96386.34
2023-01-08T07:43:03.693Z,96389.31
2023-01-08T07:45:36.454Z,96387.38
2023-01-08T07:48:09.533Z,96385.41
2023-01-08T07:50:43.289Z,96388.31
2023-01-08T07:53:15.980Z,96394.69
2023-01-08T07:55:48.645Z,96393.53
2023-01-08T07:58:21.457Z,96393.41
2023-01-08T08:00:54.739Z,96390.97
2023-01-08T08:03:27.601Z,96390.81
2023-01-08T08:06:00.943Z,96393.25
2023-01-08T08:08:34.191Z,96397.91
2023-01-08T08:11:06.901Z,96398.81
2023-01-08T08:13:39.579Z,96406.00
2023-01-08T08:16:12.964Z,96406.63
2023-01-08T08:18:45.906Z,96410.19
2023-01-08T08:21:18.665Z,96401.28
2023-01-08T08:23:51.809Z,96399.16
2023-01-08T08:26:24.934Z,96392.28
2023-01-08T08:28:57.864Z,96397.53
2023-01-08T08:31:30.602Z,96397.94
2023-01-08T08:34:03.609Z,96395.94
2023-01-08T08:36:36.403Z,96385.78
2023-01-08T08:39:09.565Z,96378.28
2023-01-08T08:41:42.492Z,96375.91
2023-01-08T08:44:15.259Z,96384.56
2023-01-08T08:46:48.063Z,96380.56
2023-01-08T08:49:21.262Z,96378.22
2023-01-08T08:51:53.923Z,96374.63
2023-01-08T08:54:26.787Z,96373.22
2023-01-08T08:56:59.429Z,96368.13
2023-01-08T08:59:32.197Z,96358.94
2023-01-08T09:02:05.581Z,96370.59
2023-01-08T09:04:38.359Z,96361.19
2023-01-08T09:07:11.227Z,96359.72
2023-01-08T09:09:43.949Z,96372.75
2023-01-08T09:12:16.693Z,96367.94
2023-01-08T09:14:49.616Z,96369.38
2023-01-08T09:17:22.683Z,96367.03
2023-01-08T09:19:55.388Z,96362.28
2023-01-08T09:22:28.115Z,96357.25
2023-01-08T09:25:00.938Z,96364.38
2023-01-08T09:27:33.751Z,96365.34
2023-01-08T09:30:07.372Z,96368.50
2023-01-08T09:32:40.201Z,96357.34
2023-01-08T09:35:12.950Z,96355.28
2023-01-08T09:37:50.923Z,96357.56
2023-01-08T09:40:44.657Z,96361.81
2023-01-08T09:43:23.009Z,96351.53
2023-01-08T09:46:00.855Z,96351.72
2023-01-08T09:48:37.560Z,96354.63
2023-01-08T09:51:16.133Z,96352.53
2023-01-08T09:53:55.694Z,96343.06
2023-01-08T09:56:34.761Z,96330.47
2023-01-08T09:59:16.501Z,96320.81
2023-01-08T10:01:52.997Z,96320.81
2023-01-08T10:04:29.801Z,96322.50
2023-01-08T10:07:15.437Z,96316.41
2023-01-08T10:09:49.496Z,96302.66
2023-01-08T10:12:32.774Z,96301.97
2023-01-08T10:15:15.475Z,96301.16
2023-01-08T10:18:11.135Z,96302.66
2023-01-08T10:20:43.805Z,96286.97
2023-01-08T10:23:19.664Z,96284.91
2023-01-08T10:25:58.319Z,96280.13
2023-01-08T10:28:33.748Z,96268.56
2023-01-08T10:31:14.744Z,96257.19
2023-01-08T10:33:49.630Z,96256.56
2023-01-08T10:36:25.360Z,96247.88
2023-01-08T10:39:02.121Z,96251.28
2023-01-08T10:41:39.416Z,96241.66
2023-01-08T10:44:18.634Z,96234.31
2023-01-08T10:46:59.176Z,96220.53
2023-01-08T10:49:43.741Z,96213.22
2023-01-08T10:52:28.834Z,96206.03
2023-01-08T10:55:22.801Z,96199.13
2023-01-08T10:57:57.535Z,96195.28
2023-01-08T11:00:32.989Z,96200.03
2023-01-08T11:03:10.000Z,96204.25
2023-01-08T11:05:42.876Z,96203.56
2023-01-08T11:08:23.262Z,96210.94
2023-01-08T11:11:01.190Z,96211.66
2023-01-08T11:13:34.042Z,96215.91
2023-01-08T11:16:09.658Z,96218.09
2023-01-08T11:18:50.440Z,96208.38
2023-01-08T11:21:26.450Z,96197.38
2023-01-08T11:24:19.967Z,96193.06
2023-01-08T11:27:10.621Z,96183.03
2023-01-08T11:30:06.360Z,96189.09
2023-01-08T11:33:05.637Z,96176.50
2023-01-08T11:35:58.921Z,96176.53
2023-01-08T11:38:32.611Z,96181.06
2023-01-08T11:41:25.510Z,96185.28
2023-01-08T11:44:39.560Z,96170.66
2023-01-08T11:47:19.194Z,96170.13
2023-01-08T11:50:11.831Z,96175.38
2023-01-08T11:53:13.971Z,96166.09
2023-01-08T11:55:58.876Z,96160.88
2023-01-08T11:58:45.890Z,96157.94
2023-01-08T12:01:39.923Z,96150.78
2023-01-08T12:04:32.946Z,96146.69
2023-01-08T12:07:18.966Z,96147.25
2023-01-08T12:10:10.613Z,96129.69
2023-01-08T12:13:18.973Z,96120.59
2023-01-08T12:16:10.338Z,96106.59
2023-01-08T12:18:57.179Z,96118.34
2023-01-08T12:21:42.348Z,96111.91
2023-01-08T12:24:32.202Z,96111.59
2023-01-08T12:27:17.227Z,96112.09
2023-01-08T12:29:55.900Z,96107.72
2023-01-08T12:32:45.642Z,96090.47
2023-01-08T12:35:25.377Z,96087.16
2023-01-08T12:38:06.189Z,96084.53
2023-01-08T12:40:52.382Z,96082.94
2023-01-08T12:43:57.451Z,96079.97
2023-01-08T12:46:36.096Z,96072.44
2023-01-08T12:49:13.880Z,96073.81
2023-01-08T12:52:06.898Z,96070.66
2023-01-08T12:54:59.123Z,96055.06
2023-01-08T12:57:42.518Z,96046.03
2023-01-08T13:00:45.364Z,96040.34
2023-01-08T13:03:25.390Z,96029.41
2023-01-08T13:06:13.493Z,96029.78
2023-01-08T13:08:53.285Z,96025.16
2023-01-08T13:11:30.732Z,96006.44
2023-01-08T13:14:12.687Z,96006.44
2023-01-08T13:16:47.478Z,95998.50
2023-01-08T13:19:31.500Z,95990.03
2023-01-08T13:22:04.216Z,95986.75
2023-01-08T13:24:39.240Z,95987.91
2023-01-08T13:27:14.638Z,95981.22
2023-01-08T13:29:50.224Z,95967.97
2023-01-08T13:32:42.544Z,95961.97
2023-01-08T13:35:15.118Z,95965.97
2023-01-08T13:38:12.567Z,95956.31
2023-01-08T13:40:45.232Z,95949.81
2023-01-08T13:43:31.197Z,95952.56
2023-01-08T13:46:03.853Z,95952.72
2023-01-08T13:49:00.393Z,95942.31
2023-01-08T13:51:42.468Z,95946.56
2023-01-08T13:54:15.115Z,95949.72
2023-01-08T13:56:54.352Z,95946.94
2023-01-08T13:59:41.815Z,95942.78
2023-01-08T14:02:42.958Z,95946.06
2023-01-08T14:05:30.974Z,95938.06
2023-01-08T14:08:03.753Z,95933.84
2023-01-08T14:10:37.010Z,95922.50
2023-01-08T14:13:09.940Z,95922.34
2023-01-08T14:15:43.250Z,95914.00
2023-01-08T14:18:16.128Z,95916.94
2023-01-08T14:20:51.651Z,95919.84
2023-01-08T14:23:30.532Z,95905.03
2023-01-08T14:26:06.651Z,95916.84
2023-01-08T14:28:39.384Z,95921.56
2023-01-08T14:31:21.765Z,95926.13
2023-01-08T14:33:59.139Z,95918.59
2023-01-08T14:36:32.427Z,95890.97
2023-01-08T14:39:12.462Z,95887.81
2023-01-08T14:41:45.257Z,95886.22
2023-01-08T14:44:36.361Z,95876.34
2023-01-08T14:47:19.731Z,95879.06
2023-01-08T14:49:54.225Z,95881.88
2023-01-08T14:52:27.157Z,95888.13
2023-01-08T14:55:03.764Z,95887.09
2023-01-08T14:57:36.443Z,95885.16
2023-01-08T15:00:17.883Z,95870.72
2023-01-08T15:02:54.141Z,95861.44
2023-01-08T15:05:32.899Z,95852.00
2023-01-08T15:08:31.472Z,95851.50
2023-01-08T15:11:05.528Z,95856.09
2023-01-08T15:13:38.253Z,95849.56
2023-01-08T15:16:33.679Z,95833.50
2023-01-08T15:19:19.406Z,95817.69
2023-01-08T15:21:56.022Z,95820.06
2023-01-08T15:24:38.162Z,95816.13
2023-01-08T15:27:19.771Z,95807.34
2023-01-08T15:29:55.694Z,95815.34
2023-01-08T15:32:31.414Z,95813.28
2023-01-08T15:35:18.176Z,95814.09
2023-01-08T15:37:50.874Z,95805.94
2023-01-08T15:40:23.539Z,95799.34
2023-01-08T15:42:56.248Z,95799.16
2023-01-08T15:45:30.472Z,95789.09
2023-01-08T15:48:04.352Z,95799.34
2023-01-08T15:50:40.128Z,95793.81
2023-01-08T15:53:17.870Z,95780.72
2023-01-08T15:55:51.400Z,95779.97
2023-01-08T15:58:24.087Z,95790.88
2023-01-08T16:00:56.956Z,95781.63
2023-01-08T16:03:29.621Z,95777.38
2023-01-08T16:06:06.884Z,95780.47
2023-01-08T16:08:39.517Z,95756.06
2023-01-08T16:11:13.691Z,95751.81
2023-01-08T16:13:46.787Z,95766.06
2023-01-08T16:16:19.549Z,95759.19
2023-01-08T16:18:52.204Z,95760.59
2023-01-08T16:21:24.900Z,95760.75
2023-01-08T16:23:57.803Z,95749.56
2023-01-08T16:26:30.483Z,95749.16
2023-01-08T16:29:03.134Z,95745.34
2023-01-08T16:31:38.299Z,95745.69
2023-01-08T16:34:11.816Z,95740.66
2023-01-08T16:36:44.461Z,95746.63
2023-01-08T16:39:17.935Z,95743.34
2023-01-08T16:41:50.614Z,95747.25
2023-01-08T16:44:27.115Z,95739.56
2023-01-08T16:47:01.516Z,95734.22
2023-01-08T16:49:34.148Z,95732.63
2023-01-08T16:52:06.856Z,95727.56
2023-01-08T16:54:39.610Z,95731.84
2023-01-08T16:57:12.245Z,95727.91
2023-01-08T16:59:44.899Z,95730.09
2023-01-08T17:02:17.572Z,95725.72
2023-01-08T17:04:50.209Z,95728.75
2023-01-08T17:07:22.874Z,95733.31
2023-01-08T17:09:55.546Z,95734.56
2023-01-08T17:12:29.588Z,95727.00
2023-01-08T17:15:02.349Z,95729.38
2023-01-08T17:17:34.993Z,95716.47
2023-01-08T17:20:09.357Z,95710.84
2023-01-08T17:22:42.072Z,95707.06
2023-01-08T17:25:14.772Z,95702.56
2023-01-08T17:27:47.428Z,95706.84
2023-01-08T17:30:20.155Z,95711.16
2023-01-08T17:32:52.859Z,95709.31
2023-01-08T17:35:25.542Z,95709.78
2023-01-08T17:37:58.172Z,95696.59
2023-01-08T17:40:30.814Z,95694.19
2023-01-08T17:43:03.495Z,95692.34
2023-01-08T17:45:38.792Z,95676.19
2023-01-08T17:48:11.490Z,95674.84
2023-01-08T17:50:44.160Z,95688.50
2023-01-08T17:53:16.832Z,95693.72
2023-01-08T17:55:49.460Z,95685.53
2023-01-08T17:58:22.083Z,95682.63
2023-01-08T18:00:54.771Z,95677.94
2023-01-08T18:03:27.426Z,95673.38
2023-01-08T18:06:06.535Z,95670.41
2023-01-08T18:08:39.764Z,95677.19
2023-01-08T18:11:12.497Z,95672.00
2023-01-08T18:13:45.174Z,95679.13
2023-01-08T18:16:17.892Z,95661.41
2023-01-08T18:18:51.992Z,95667.59
2023-01-08T18:21:26.394Z,95666.31
2023-01-08T18:23:59.075Z,95665.75
2023-01-08T18:26:31.790Z,95668.19
2023-01-08T18:29:04.750Z,95663.84
2023-01-08T18:31:37.462Z,95659.63
2023-01-08T18:34:11.724Z,95683.91
2023-01-08T18:36:44.621Z,95670.91
2023-01-08T18:39:17.254Z,95665.44
2023-01-08T18:41:49.863Z,95673.25
2023-01-08T18:44:22.528Z,95671.03
2023-01-08T18:46:55.204Z,95669.94
2023-01-08T18:49:27.911Z,95663.97
2023-01-08T18:52:00.579Z,95649.47
2023-01-08T18:54:35.209Z,95647.13
2023-01-08T18:57:08.073Z,95641.56
2023-01-08T18:59:40.753Z,95643.50
2023-01-08T19:02:27.226Z,95648.88
2023-01-08T19:05:00.751Z,95653.63
2023-01-08T19:07:33.394Z,95653.53
2023-01-08T19:10:06.299Z,95655.09
2023-01-08T19:12:39.560Z,95647.84
2023-01-08T19:15:12.203Z,95647.19
2023-01-08T19:17:44.946Z,95647.63
2023-01-08T19:20:17.712Z,95643.19
2023-01-08T19:22:50.416Z,95629.13
2023-01-08T19:25:23.107Z,95634.09
2023-01-08T19:27:55.776Z,95640.34
2023-01-08T19:30:28.471Z,95629.25
2023-01-08T19:33:01.519Z,95623.72
2023-01-08T19:35:39.269Z,95616.91
2023-01-08T19:38:11.890Z,95623.22
2023-01-08T19:40:44.924Z,95625.06
2023-01-08T19:43:17.774Z,95630.03
2023-01-08T19:45:50.462Z,95627.78
2023-01-08T19:48:23.153Z,95625.06
2023-01-08T19:50:55.836Z,95628.94
2023-01-08T19:53:28.504Z,95627.75
2023-01-08T19:56:10.598Z,95621.78
2023-01-08T19:58:43.693Z,95618.84
2023-01-08T20:01:23.369Z,95627.91
2023-01-08T20:03:56.830Z,95622.00
2023-01-08T20:06:29.562Z,95622.13
2023-01-08T20:09:02.703Z,95634.44
2023-01-08T20:11:35.413Z,95625.09
2023-01-08T20:14:08.094Z,95626.97
2023-01-08T20:16:40.800Z,95620.84
2023-01-08T20:19:13.491Z,95625.50
2023-01-08T20:21:46.158Z,95619.72
2023-01-08T20:24:18.849Z,95621.16
2023-01-08T20:26:51.643Z,95618.03
2023-01-08T20:29:24.625Z,95612.84
2023-01-08T20:31:57.349Z,95623.00
2023-01-08T20:34:31.156Z,95612.50
2023-01-08T20:37:04.714Z,95624.41
2023-01-08T20:39:37.753Z,95607.94
2023-01-08T20:42:12.314Z,95618.91
2023-01-08T20:44:50.130Z,95615.63
2023-01-08T20:47:22.787Z,95615.38
2023-01-08T20:49:55.467Z,95617.09
2023-01-08T20:52:30.109Z,95612.94
2023-01-08T20:55:02.873Z,95609.19
2023-01-08T20:57:35.564Z,95608.47
2023-01-08T21:00:09.037Z,95609.47
2023-01-08T21:02:41.834Z,95605.41
2023-01-08T21:05:14.576Z,95608.50
2023-01-08T21:07:47.249Z,95608.56
2023-01-08T21:10:20.105Z,95604.06
2023-01-08T21:12:52.895Z,95605.75
2023-01-08T21:15:26.459Z,95605.91
2023-01-08T21:17:59.182Z,95603.72
2023-01-08T21:20:31.895Z,95594.63
2023-01-08T21:23:04.721Z,95593.84
2023-01-08T21:25:38.861Z,95594.53
2023-01-08T21:28:12.137Z,95594.19
2023-01-08T21:30:44.831Z,95589.47
2023-01-08T21:33:17.990Z,95592.66
2023-01-08T21:35:50.739Z,95591.19
2023-01-08T21:38:23.456Z,95585.81
2023-01-08T21:41:06.388Z,95593.94
2023-01-08T21:43:39.219Z,95587.00
2023-01-08T21:46:12.640Z,95583.34
2023-01-08T21:48:46.245Z,95575.56
2023-01-08T21:51:19.011Z,95566.19
2023-01-08T21:53:51.751Z,95563.59
2023-01-08T21:56:24.543Z,95561.25
2023-01-08T21:58:57.272Z,95570.75
2023-01-08T22:01:30.371Z,95551.22
2023-01-08T22:04:03.282Z,95563.94
2023-01-08T22:06:35.983Z,95555.28
2023-01-08T22:09:09.542Z,95561.09
2023-01-08T22:11:42.223Z,95563.63
2023-01-08T22:14:15.953Z,95555.47
2023-01-08T22:16:48.654Z,95562.81
2023-01-08T22:19:21.375Z,95556.72
2023-01-08T22:21:54.142Z,95567.69
2023-01-08T22:24:26.914Z,95570.19
2023-01-08T22:26:59.833Z,95554.84
2023-01-08T22:29:32.737Z,95559.09
2023-01-08T22:32:05.609Z,95552.97
2023-01-08T22:34:38.413Z,95552.97
2023-01-08T22:37:11.075Z,95552.66
2023-01-08T22:39:45.103Z,95552.97
2023-01-08T22:42:17.773Z,95548.13
2023-01-08T22:44:50.487Z,95555.16
2023-01-08T22:47:23.359Z,95552.66
2023-01-08T22:49:56.109Z,95553.94
2023-01-08T22:52:28.769Z,95544.97
2023-01-08T22:55:01.504Z,95555.63
2023-01-08T22:57:34.284Z,95539.16
2023-01-08T23:00:08.792Z,95548.25
2023-01-08T23:02:41.531Z,95554.69
2023-01-08T23:05:14.230Z,95551.25
2023-01-08T23:07:46.944Z,95558.28
2023-01-08T23:10:19.696Z,95563.97
2023-01-08T23:12:53.399Z,95553.44
2023-01-08T23:15:26.570Z,95542.94
2023-01-08T23:17:59.336Z,95532.94
2023-01-08T23:20:32.019Z,95538.88
2023-01-08T23:23:04.787Z,95544.66
2023-01-08T23:25:37.519Z,95546.38
2023-01-08T23:28:10.249Z,95536.19
2023-01-08T23:30:42.940Z,95539.34
2023-01-08T23:33:15.767Z,95537.13
2023-01-08T23:35:48.460Z,95543.88
2023-01-08T23:38:21.176Z,95528.06
2023-01-08T23:40:53.961Z,95528.22
2023-01-08T23:43:26.845Z,95540.91
2023-01-08T23:46:05.558Z,95543.56
2023-01-08T23:48:38.286Z,95550.00
2023-01-08T23:51:10.924Z,95541.06
2023-01-08T23:53:43.725Z,95540.13
2023-01-08T23:56:16.431Z,95539.34
2023-01-08T23:58:49.605Z,95542.31
